sensor_id;sensor_type;location;lat;lon;timestamp;temperature;humidity
4215;DHT22;2121;48.062;7.850;2022-12-18T00:01:13;-5.70;99.90
4215;DHT22;2121;48.062;7.850;2022-12-18T00:03:41;-5.70;99.90
4215;DHT22;2121;48.062;7.850;2022-12-18T00:06:08;-5.80;99.90
4215;DHT22;2121;48.062;7.850;2022-12-18T00:08:35;-5.80;99.90
4215;DHT22;2121;48.062;7.850;2022-12-18T00:11:08;-5.90;99.90
4215;DHT22;2121;48.062;7.850;2022-12-18T00:13:37;-5.90;99.90
4215;DHT22;2121;48.062;7.850;2022-12-18T00:16:04;-5.90;99.90
4215;DHT22;2121;48.062;7.850;2022-12-18T00:18:38;-5.90;99.90
4215;DHT22;2121;48.062;7.850;2022-12-18T00:21:06;-5.80;99.90
4215;DHT22;2121;48.062;7.850;2022-12-18T00:23:34;-5.90;99.90
4215;DHT22;2121;48.062;7.850;2022-12-18T00:26:02;-6.00;99.90
4215;DHT22;2121;48.062;7.850;2022-12-18T00:28:29;-6.00;99.90
4215;DHT22;2121;48.062;7.850;2022-12-18T00:31:22;-6.00;99.90
4215;DHT22;2121;48.062;7.850;2022-12-18T00:33:48;-6.00;99.90
4215;DHT22;2121;48.062;7.850;2022-12-18T00:36:19;-6.00;99.90
4215;DHT22;2121;48.062;7.850;2022-12-18T00:38:47;-5.90;99.90
4215;DHT22;2121;48.062;7.850;2022-12-18T00:41:14;-6.10;99.90
4215;DHT22;2121;48.062;7.850;2022-12-18T00:44:01;-6.40;99.90
4215;DHT22;2121;48.062;7.850;2022-12-18T00:46:27;-6.70;99.90
4215;DHT22;2121;48.062;7.850;2022-12-18T00:48:53;-6.80;99.90
4215;DHT22;2121;48.062;7.850;2022-12-18T00:51:19;-6.70;99.90
4215;DHT22;2121;48.062;7.850;2022-12-18T00:53:44;-6.60;99.90
4215;DHT22;2121;48.062;7.850;2022-12-18T00:56:10;-6.50;99.90
4215;DHT22;2121;48.062;7.850;2022-12-18T00:58:36;-6.40;99.90
4215;DHT22;2121;48.062;7.850;2022-12-18T01:01:04;-6.30;99.90
4215;DHT22;2121;48.062;7.850;2022-12-18T01:03:30;-6.30;99.90
4215;DHT22;2121;48.062;7.850;2022-12-18T01:05:56;-6.30;99.90
4215;DHT22;2121;48.062;7.850;2022-12-18T01:08:22;-6.30;99.90
4215;DHT22;2121;48.062;7.850;2022-12-18T01:10:48;-6.30;99.90
4215;DHT22;2121;48.062;7.850;2022-12-18T01:13:14;-6.20;99.90
4215;DHT22;2121;48.062;7.850;2022-12-18T01:15:39;-6.30;99.90
4215;DHT22;2121;48.062;7.850;2022-12-18T01:18:06;-6.30;99.90
4215;DHT22;2121;48.062;7.850;2022-12-18T01:20:32;-6.20;99.90
4215;DHT22;2121;48.062;7.850;2022-12-18T01:22:58;-6.20;99.90
4215;DHT22;2121;48.062;7.850;2022-12-18T01:25:24;-6.20;99.90
4215;DHT22;2121;48.062;7.850;2022-12-18T01:27:50;-6.20;99.90
4215;DHT22;2121;48.062;7.850;2022-12-18T01:30:16;-6.30;99.90
4215;DHT22;2121;48.062;7.850;2022-12-18T01:32:42;-6.40;99.90
4215;DHT22;2121;48.062;7.850;2022-12-18T01:35:07;-6.30;99.90
4215;DHT22;2121;48.062;7.850;2022-12-18T01:37:33;-6.30;99.90
4215;DHT22;2121;48.062;7.850;2022-12-18T01:39:59;-6.30;99.90
4215;DHT22;2121;48.062;7.850;2022-12-18T01:42:25;-6.30;99.90
4215;DHT22;2121;48.062;7.850;2022-12-18T01:47:43;-6.40;99.90
4215;DHT22;2121;48.062;7.850;2022-12-18T01:52:58;-6.30;99.90
4215;DHT22;2121;48.062;7.850;2022-12-18T01:55:30;-6.40;99.90
4215;DHT22;2121;48.062;7.850;2022-12-18T01:57:59;-6.40;99.90
4215;DHT22;2121;48.062;7.850;2022-12-18T02:00:26;-6.50;99.90
4215;DHT22;2121;48.062;7.850;2022-12-18T02:02:53;-6.50;99.90
4215;DHT22;2121;48.062;7.850;2022-12-18T02:05:44;-6.50;99.90
4215;DHT22;2121;48.062;7.850;2022-12-18T02:08:26;-6.40;99.90
4215;DHT22;2121;48.062;7.850;2022-12-18T02:22:47;-6.40;99.90
4215;DHT22;2121;48.062;7.850;2022-12-18T02:28:26;-6.30;99.90
4215;DHT22;2121;48.062;7.850;2022-12-18T02:30:56;-6.30;99.90
4215;DHT22;2121;48.062;7.850;2022-12-18T02:33:24;-6.30;99.90
4215;DHT22;2121;48.062;7.850;2022-12-18T02:35:51;-6.40;99.90
4215;DHT22;2121;48.062;7.850;2022-12-18T02:38:18;-6.40;99.90
4215;DHT22;2121;48.062;7.850;2022-12-18T02:40:44;-6.40;99.90
4215;DHT22;2121;48.062;7.850;2022-12-18T02:43:13;-6.40;99.90
4215;DHT22;2121;48.062;7.850;2022-12-18T02:45:55;-6.40;99.90
4215;DHT22;2121;48.062;7.850;2022-12-18T02:48:30;-6.40;99.90
4215;DHT22;2121;48.062;7.850;2022-12-18T02:54:18;-6.40;99.90
4215;DHT22;2121;48.062;7.850;2022-12-18T02:56:55;-6.40;99.90
4215;DHT22;2121;48.062;7.850;2022-12-18T02:59:32;-6.40;99.90
4215;DHT22;2121;48.062;7.850;2022-12-18T03:02:29;-6.40;99.90
4215;DHT22;2121;48.062;7.850;2022-12-18T03:05:18;-6.50;99.90
4215;DHT22;2121;48.062;7.850;2022-12-18T03:07:57;-6.60;99.90
4215;DHT22;2121;48.062;7.850;2022-12-18T03:10:29;-6.50;99.90
4215;DHT22;2121;48.062;7.850;2022-12-18T03:13:13;-6.50;99.90
4215;DHT22;2121;48.062;7.850;2022-12-18T03:15:51;-6.60;99.90
4215;DHT22;2121;48.062;7.850;2022-12-18T03:18:38;-6.60;99.90
4215;DHT22;2121;48.062;7.850;2022-12-18T03:21:10;-6.60;99.90
4215;DHT22;2121;48.062;7.850;2022-12-18T03:23:40;-6.50;99.90
4215;DHT22;2121;48.062;7.850;2022-12-18T03:26:13;-6.60;99.90
4215;DHT22;2121;48.062;7.850;2022-12-18T03:28:57;-6.60;99.90
4215;DHT22;2121;48.062;7.850;2022-12-18T03:31:32;-6.60;99.90
4215;DHT22;2121;48.062;7.850;2022-12-18T03:34:09;-6.50;99.90
4215;DHT22;2121;48.062;7.850;2022-12-18T03:36:40;-6.60;99.90
4215;DHT22;2121;48.062;7.850;2022-12-18T03:39:06;-6.60;99.90
4215;DHT22;2121;48.062;7.850;2022-12-18T03:41:37;-6.60;99.90
4215;DHT22;2121;48.062;7.850;2022-12-18T03:50:11;-6.70;99.90
4215;DHT22;2121;48.062;7.850;2022-12-18T03:53:17;-6.60;99.90
4215;DHT22;2121;48.062;7.850;2022-12-18T03:56:03;-6.70;99.90
4215;DHT22;2121;48.062;7.850;2022-12-18T03:58:31;-6.80;99.90
4215;DHT22;2121;48.062;7.850;2022-12-18T04:01:02;-6.90;99.90
4215;DHT22;2121;48.062;7.850;2022-12-18T04:03:31;-7.00;99.90
4215;DHT22;2121;48.062;7.850;2022-12-18T04:05:59;-6.90;99.90
4215;DHT22;2121;48.062;7.850;2022-12-18T04:08:26;-7.00;99.90
4215;DHT22;2121;48.062;7.850;2022-12-18T04:10:53;-6.90;99.90
4215;DHT22;2121;48.062;7.850;2022-12-18T04:13:29;-7.00;99.90
4215;DHT22;2121;48.062;7.850;2022-12-18T04:15:57;-7.00;99.90
4215;DHT22;2121;48.062;7.850;2022-12-18T04:18:23;-7.00;99.90
4215;DHT22;2121;48.062;7.850;2022-12-18T04:20:49;-7.00;99.90
4215;DHT22;2121;48.062;7.850;2022-12-18T04:23:15;-7.00;99.90
4215;DHT22;2121;48.062;7.850;2022-12-18T04:25:40;-7.00;99.90
4215;DHT22;2121;48.062;7.850;2022-12-18T04:28:06;-6.90;99.90
4215;DHT22;2121;48.062;7.850;2022-12-18T04:30:32;-7.00;99.90
4215;DHT22;2121;48.062;7.850;2022-12-18T04:32:57;-7.00;99.90
4215;DHT22;2121;48.062;7.850;2022-12-18T04:35:23;-6.90;99.90
4215;DHT22;2121;48.062;7.850;2022-12-18T04:37:49;-7.00;99.90
4215;DHT22;2121;48.062;7.850;2022-12-18T04:40:15;-7.10;99.90
4215;DHT22;2121;48.062;7.850;2022-12-18T04:42:40;-7.10;99.90
4215;DHT22;2121;48.062;7.850;2022-12-18T04:45:07;-7.20;99.90
4215;DHT22;2121;48.062;7.850;2022-12-18T04:47:33;-7.20;99.90
4215;DHT22;2121;48.062;7.850;2022-12-18T04:49:59;-7.30;99.90
4215;DHT22;2121;48.062;7.850;2022-12-18T04:52:24;-7.40;99.90
4215;DHT22;2121;48.062;7.850;2022-12-18T04:54:50;-7.50;99.90
4215;DHT22;2121;48.062;7.850;2022-12-18T04:57:16;-7.50;99.90
4215;DHT22;2121;48.062;7.850;2022-12-18T04:59:43;-7.50;99.90
4215;DHT22;2121;48.062;7.850;2022-12-18T05:02:09;-7.40;99.90
4215;DHT22;2121;48.062;7.850;2022-12-18T05:04:35;-7.50;99.90
4215;DHT22;2121;48.062;7.850;2022-12-18T05:07:01;-7.60;99.90
4215;DHT22;2121;48.062;7.850;2022-12-18T05:09:27;-7.60;99.90
4215;DHT22;2121;48.062;7.850;2022-12-18T05:11:52;-7.60;99.90
4215;DHT22;2121;48.062;7.850;2022-12-18T05:14:19;-7.70;99.90
4215;DHT22;2121;48.062;7.850;2022-12-18T05:16:44;-7.60;99.90
4215;DHT22;2121;48.062;7.850;2022-12-18T05:19:10;-7.70;99.90
4215;DHT22;2121;48.062;7.850;2022-12-18T05:21:36;-7.80;99.90
4215;DHT22;2121;48.062;7.850;2022-12-18T05:24:02;-7.80;99.90
4215;DHT22;2121;48.062;7.850;2022-12-18T05:26:28;-7.90;99.90
4215;DHT22;2121;48.062;7.850;2022-12-18T05:28:53;-8.00;99.90
4215;DHT22;2121;48.062;7.850;2022-12-18T05:31:19;-8.00;99.90
4215;DHT22;2121;48.062;7.850;2022-12-18T05:33:45;-8.00;99.90
4215;DHT22;2121;48.062;7.850;2022-12-18T05:36:11;-8.10;99.90
4215;DHT22;2121;48.062;7.850;2022-12-18T05:38:38;-8.00;99.90
4215;DHT22;2121;48.062;7.850;2022-12-18T05:41:05;-8.10;99.90
4215;DHT22;2121;48.062;7.850;2022-12-18T05:43:33;-8.10;99.90
4215;DHT22;2121;48.062;7.850;2022-12-18T05:46:04;-8.00;99.90
4215;DHT22;2121;48.062;7.850;2022-12-18T05:48:34;-8.00;99.90
4215;DHT22;2121;48.062;7.850;2022-12-18T05:51:11;-8.10;99.90
4215;DHT22;2121;48.062;7.850;2022-12-18T05:53:40;-8.10;99.90
4215;DHT22;2121;48.062;7.850;2022-12-18T05:56:10;-8.20;99.90
4215;DHT22;2121;48.062;7.850;2022-12-18T05:58:37;-8.30;99.90
4215;DHT22;2121;48.062;7.850;2022-12-18T06:01:12;-8.40;99.90
4215;DHT22;2121;48.062;7.850;2022-12-18T06:03:43;-8.40;99.90
4215;DHT22;2121;48.062;7.850;2022-12-18T06:06:28;-8.50;99.90
4215;DHT22;2121;48.062;7.850;2022-12-18T06:08:54;-8.60;99.90
4215;DHT22;2121;48.062;7.850;2022-12-18T06:11:25;-8.80;99.90
4215;DHT22;2121;48.062;7.850;2022-12-18T06:13:55;-8.90;99.90
4215;DHT22;2121;48.062;7.850;2022-12-18T06:16:22;-9.10;99.90
4215;DHT22;2121;48.062;7.850;2022-12-18T06:18:47;-9.20;99.90
4215;DHT22;2121;48.062;7.850;2022-12-18T06:21:13;-9.30;99.90
4215;DHT22;2121;48.062;7.850;2022-12-18T06:23:39;-9.30;99.90
4215;DHT22;2121;48.062;7.850;2022-12-18T06:26:06;-9.30;99.90
4215;DHT22;2121;48.062;7.850;2022-12-18T06:28:37;-9.30;99.90
4215;DHT22;2121;48.062;7.850;2022-12-18T06:31:03;-9.30;99.90
4215;DHT22;2121;48.062;7.850;2022-12-18T06:33:30;-9.20;99.90
4215;DHT22;2121;48.062;7.850;2022-12-18T06:36:10;-9.20;99.90
4215;DHT22;2121;48.062;7.850;2022-12-18T06:38:40;-9.20;99.90
4215;DHT22;2121;48.062;7.850;2022-12-18T06:41:08;-9.20;99.90
4215;DHT22;2121;48.062;7.850;2022-12-18T06:43:44;-9.10;99.90
4215;DHT22;2121;48.062;7.850;2022-12-18T06:46:11;-8.90;99.90
4215;DHT22;2121;48.062;7.850;2022-12-18T06:48:38;-8.80;99.90
4215;DHT22;2121;48.062;7.850;2022-12-18T06:51:04;-8.80;99.90
4215;DHT22;2121;48.062;7.850;2022-12-18T06:53:30;-8.80;99.90
4215;DHT22;2121;48.062;7.850;2022-12-18T06:56:04;-8.70;99.90
4215;DHT22;2121;48.062;7.850;2022-12-18T06:58:32;-8.60;99.90
4215;DHT22;2121;48.062;7.850;2022-12-18T07:01:05;-8.60;99.90
4215;DHT22;2121;48.062;7.850;2022-12-18T07:03:33;-8.60;99.90
4215;DHT22;2121;48.062;7.850;2022-12-18T07:05:59;-8.60;99.90
4215;DHT22;2121;48.062;7.850;2022-12-18T07:08:25;-8.60;99.90
4215;DHT22;2121;48.062;7.850;2022-12-18T07:10:51;-8.60;99.90
4215;DHT22;2121;48.062;7.850;2022-12-18T07:13:18;-8.60;99.90
4215;DHT22;2121;48.062;7.850;2022-12-18T07:15:44;-8.60;99.90
4215;DHT22;2121;48.062;7.850;2022-12-18T07:18:10;-8.60;99.90
4215;DHT22;2121;48.062;7.850;2022-12-18T07:20:36;-8.60;99.90
4215;DHT22;2121;48.062;7.850;2022-12-18T07:23:05;-8.70;99.90
4215;DHT22;2121;48.062;7.850;2022-12-18T07:25:37;-8.90;99.90
4215;DHT22;2121;48.062;7.850;2022-12-18T07:28:03;-8.90;99.90
4215;DHT22;2121;48.062;7.850;2022-12-18T07:30:29;-8.80;99.90
4215;DHT22;2121;48.062;7.850;2022-12-18T07:32:55;-8.90;99.90
4215;DHT22;2121;48.062;7.850;2022-12-18T07:35:21;-8.90;99.90
4215;DHT22;2121;48.062;7.850;2022-12-18T07:37:46;-8.90;99.90
4215;DHT22;2121;48.062;7.850;2022-12-18T07:40:12;-8.90;99.90
4215;DHT22;2121;48.062;7.850;2022-12-18T07:42:38;-9.00;99.90
4215;DHT22;2121;48.062;7.850;2022-12-18T07:45:04;-9.10;99.90
4215;DHT22;2121;48.062;7.850;2022-12-18T07:47:30;-9.10;99.90
4215;DHT22;2121;48.062;7.850;2022-12-18T07:49:59;-9.20;99.90
4215;DHT22;2121;48.062;7.850;2022-12-18T07:52:25;-9.10;99.90
4215;DHT22;2121;48.062;7.850;2022-12-18T07:54:50;-9.10;99.90
4215;DHT22;2121;48.062;7.850;2022-12-18T07:57:17;-9.10;99.90
4215;DHT22;2121;48.062;7.850;2022-12-18T07:59:43;-9.20;99.90
4215;DHT22;2121;48.062;7.850;2022-12-18T08:02:09;-9.10;99.90
4215;DHT22;2121;48.062;7.850;2022-12-18T08:04:34;-9.00;99.90
4215;DHT22;2121;48.062;7.850;2022-12-18T08:07:00;-9.00;99.90
4215;DHT22;2121;48.062;7.850;2022-12-18T08:09:26;-9.10;99.90
4215;DHT22;2121;48.062;7.850;2022-12-18T08:11:52;-9.10;99.90
4215;DHT22;2121;48.062;7.850;2022-12-18T08:14:17;-9.00;99.90
4215;DHT22;2121;48.062;7.850;2022-12-18T08:16:43;-9.00;99.90
4215;DHT22;2121;48.062;7.850;2022-12-18T08:19:09;-8.90;99.90
4215;DHT22;2121;48.062;7.850;2022-12-18T08:21:35;-8.90;99.90
4215;DHT22;2121;48.062;7.850;2022-12-18T08:24:01;-8.80;99.90
4215;DHT22;2121;48.062;7.850;2022-12-18T08:26:29;-8.80;99.90
4215;DHT22;2121;48.062;7.850;2022-12-18T08:28:57;-8.80;99.90
4215;DHT22;2121;48.062;7.850;2022-12-18T08:31:25;-8.70;99.90
4215;DHT22;2121;48.062;7.850;2022-12-18T08:33:52;-8.50;99.90
4215;DHT22;2121;48.062;7.850;2022-12-18T08:36:19;-8.30;99.90
4215;DHT22;2121;48.062;7.850;2022-12-18T08:38:46;-8.00;99.90
4215;DHT22;2121;48.062;7.850;2022-12-18T08:41:13;-7.90;99.90
4215;DHT22;2121;48.062;7.850;2022-12-18T08:43:40;-7.70;99.90
4215;DHT22;2121;48.062;7.850;2022-12-18T08:46:26;-7.60;99.90
4215;DHT22;2121;48.062;7.850;2022-12-18T08:48:57;-7.50;99.90
4215;DHT22;2121;48.062;7.850;2022-12-18T08:51:23;-7.40;99.90
4215;DHT22;2121;48.062;7.850;2022-12-18T08:53:49;-7.30;99.90
4215;DHT22;2121;48.062;7.850;2022-12-18T08:56:15;-7.20;99.90
4215;DHT22;2121;48.062;7.850;2022-12-18T08:58:42;-7.20;99.90
4215;DHT22;2121;48.062;7.850;2022-12-18T09:01:09;-7.30;99.90
4215;DHT22;2121;48.062;7.850;2022-12-18T09:03:36;-7.30;99.90
4215;DHT22;2121;48.062;7.850;2022-12-18T09:06:02;-7.20;99.90
4215;DHT22;2121;48.062;7.850;2022-12-18T09:08:29;-7.10;99.90
4215;DHT22;2121;48.062;7.850;2022-12-18T09:10:55;-7.20;99.90
4215;DHT22;2121;48.062;7.850;2022-12-18T09:13:21;-7.00;99.90
4215;DHT22;2121;48.062;7.850;2022-12-18T09:15:52;-6.90;99.90
4215;DHT22;2121;48.062;7.850;2022-12-18T09:18:20;-6.90;99.90
4215;DHT22;2121;48.062;7.850;2022-12-18T09:20:47;-6.70;99.90
4215;DHT22;2121;48.062;7.850;2022-12-18T09:23:14;-6.70;99.90
4215;DHT22;2121;48.062;7.850;2022-12-18T09:25:40;-6.50;99.90
4215;DHT22;2121;48.062;7.850;2022-12-18T09:28:10;-6.30;99.90
4215;DHT22;2121;48.062;7.850;2022-12-18T09:30:39;-6.20;99.90
4215;DHT22;2121;48.062;7.850;2022-12-18T09:33:09;-6.10;99.90
4215;DHT22;2121;48.062;7.850;2022-12-18T09:35:41;-5.90;99.90
4215;DHT22;2121;48.062;7.850;2022-12-18T09:38:12;-5.70;99.90
4215;DHT22;2121;48.062;7.850;2022-12-18T09:40:46;-5.60;99.90
4215;DHT22;2121;48.062;7.850;2022-12-18T09:43:33;-5.50;99.90
4215;DHT22;2121;48.062;7.850;2022-12-18T09:46:26;-5.30;99.90
4215;DHT22;2121;48.062;7.850;2022-12-18T09:49:03;-5.20;99.90
4215;DHT22;2121;48.062;7.850;2022-12-18T09:51:39;-5.30;99.90
4215;DHT22;2121;48.062;7.850;2022-12-18T09:54:18;-5.60;99.90
4215;DHT22;2121;48.062;7.850;2022-12-18T09:56:48;-5.70;99.90
4215;DHT22;2121;48.062;7.850;2022-12-18T09:59:26;-5.50;99.90
4215;DHT22;2121;48.062;7.850;2022-12-18T10:01:57;-5.10;99.90
4215;DHT22;2121;48.062;7.850;2022-12-18T10:04:24;-4.90;99.90
4215;DHT22;2121;48.062;7.850;2022-12-18T10:07:03;-4.70;99.90
4215;DHT22;2121;48.062;7.850;2022-12-18T10:09:57;-4.50;99.90
4215;DHT22;2121;48.062;7.850;2022-12-18T10:15:34;-4.00;99.90
4215;DHT22;2121;48.062;7.850;2022-12-18T10:18:21;-4.00;99.90
4215;DHT22;2121;48.062;7.850;2022-12-18T10:20:56;-4.00;99.90
4215;DHT22;2121;48.062;7.850;2022-12-18T10:23:39;-4.10;99.90
4215;DHT22;2121;48.062;7.850;2022-12-18T10:26:12;-4.10;99.90
4215;DHT22;2121;48.062;7.850;2022-12-18T10:28:40;-3.90;99.90
4215;DHT22;2121;48.062;7.850;2022-12-18T10:31:07;-3.70;99.90
4215;DHT22;2121;48.062;7.850;2022-12-18T10:33:40;-3.40;99.90
4215;DHT22;2121;48.062;7.850;2022-12-18T10:36:06;-3.30;99.90
4215;DHT22;2121;48.062;7.850;2022-12-18T10:38:33;-3.50;99.90
4215;DHT22;2121;48.062;7.850;2022-12-18T10:41:06;-3.60;99.90
4215;DHT22;2121;48.062;7.850;2022-12-18T10:46:42;-3.40;99.90
4215;DHT22;2121;48.062;7.850;2022-12-18T10:49:27;-3.20;99.90
4215;DHT22;2121;48.062;7.850;2022-12-18T10:54:49;-3.90;99.90
4215;DHT22;2121;48.062;7.850;2022-12-18T10:57:40;-3.90;99.90
4215;DHT22;2121;48.062;7.850;2022-12-18T11:00:26;-3.70;99.90
4215;DHT22;2121;48.062;7.850;2022-12-18T11:02:54;-3.70;99.90
4215;DHT22;2121;48.062;7.850;2022-12-18T11:05:31;-3.70;99.90
4215;DHT22;2121;48.062;7.850;2022-12-18T11:07:59;-3.70;99.90
4215;DHT22;2121;48.062;7.850;2022-12-18T11:10:37;-3.60;99.90
4215;DHT22;2121;48.062;7.850;2022-12-18T11:13:29;-3.10;99.90
4215;DHT22;2121;48.062;7.850;2022-12-18T11:15:57;-2.80;99.90
4215;DHT22;2121;48.062;7.850;2022-12-18T11:21:06;-2.90;99.90
4215;DHT22;2121;48.062;7.850;2022-12-18T11:23:34;-2.70;99.90
4215;DHT22;2121;48.062;7.850;2022-12-18T11:26:04;-2.80;99.90
4215;DHT22;2121;48.062;7.850;2022-12-18T11:28:51;-2.80;99.90
4215;DHT22;2121;48.062;7.850;2022-12-18T11:34:12;-2.80;99.90
4215;DHT22;2121;48.062;7.850;2022-12-18T11:36:45;-2.80;99.90
4215;DHT22;2121;48.062;7.850;2022-12-18T11:39:36;-2.80;99.90
4215;DHT22;2121;48.062;7.850;2022-12-18T11:48:52;-2.20;99.90
4215;DHT22;2121;48.062;7.850;2022-12-18T11:51:34;-2.00;99.90
4215;DHT22;2121;48.062;7.850;2022-12-18T11:54:22;-1.60;99.90
4215;DHT22;2121;48.062;7.850;2022-12-18T11:56:53;-1.20;99.90
4215;DHT22;2121;48.062;7.850;2022-12-18T12:22:59;-0.30;99.90
4215;DHT22;2121;48.062;7.850;2022-12-18T12:25:50;0.00;99.90
4215;DHT22;2121;48.062;7.850;2022-12-18T12:31:47;-0.20;99.90
4215;DHT22;2121;48.062;7.850;2022-12-18T12:40:30;-0.90;99.90
4215;DHT22;2121;48.062;7.850;2022-12-18T12:43:20;-0.60;99.90
4215;DHT22;2121;48.062;7.850;2022-12-18T12:46:04;-0.70;99.90
4215;DHT22;2121;48.062;7.850;2022-12-18T12:48:40;-0.50;99.90
4215;DHT22;2121;48.062;7.850;2022-12-18T12:51:22;-0.10;99.90
4215;DHT22;2121;48.062;7.850;2022-12-18T12:53:50;-0.10;99.90
4215;DHT22;2121;48.062;7.850;2022-12-18T12:56:19;-0.50;99.90
4215;DHT22;2121;48.062;7.850;2022-12-18T13:08:11;-1.70;99.90
4215;DHT22;2121;48.062;7.850;2022-12-18T13:10:58;-1.20;99.90
4215;DHT22;2121;48.062;7.850;2022-12-18T13:13:55;-0.70;99.90
4215;DHT22;2121;48.062;7.850;2022-12-18T13:16:25;-0.40;99.90
4215;DHT22;2121;48.062;7.850;2022-12-18T13:18:56;-0.10;99.90
4215;DHT22;2121;48.062;7.850;2022-12-18T13:21:32;-0.10;99.90
4215;DHT22;2121;48.062;7.850;2022-12-18T13:24:24;-0.10;99.90
4215;DHT22;2121;48.062;7.850;2022-12-18T13:26:52;0.10;99.90
4215;DHT22;2121;48.062;7.850;2022-12-18T13:29:44;0.20;99.90
4215;DHT22;2121;48.062;7.850;2022-12-18T13:32:24;0.20;99.90
4215;DHT22;2121;48.062;7.850;2022-12-18T13:37:54;0.50;99.90
4215;DHT22;2121;48.062;7.850;2022-12-18T13:45:59;-0.40;99.90
4215;DHT22;2121;48.062;7.850;2022-12-18T13:48:27;-0.50;99.90
4215;DHT22;2121;48.062;7.850;2022-12-18T13:50:58;-0.60;99.90
4215;DHT22;2121;48.062;7.850;2022-12-18T13:53:44;-0.60;99.90
4215;DHT22;2121;48.062;7.850;2022-12-18T13:56:17;-0.70;99.90
4215;DHT22;2121;48.062;7.850;2022-12-18T13:59:24;-0.80;99.90
4215;DHT22;2121;48.062;7.850;2022-12-18T14:01:56;-0.50;99.90
4215;DHT22;2121;48.062;7.850;2022-12-18T14:04:34;-0.40;99.90
4215;DHT22;2121;48.062;7.850;2022-12-18T14:07:12;-0.30;99.90
4215;DHT22;2121;48.062;7.850;2022-12-18T14:09:55;-0.50;99.90
4215;DHT22;2121;48.062;7.850;2022-12-18T14:12:31;-0.40;99.90
4215;DHT22;2121;48.062;7.850;2022-12-18T14:20:21;-0.30;99.90
4215;DHT22;2121;48.062;7.850;2022-12-18T14:22:48;-0.40;99.90
4215;DHT22;2121;48.062;7.850;2022-12-18T14:30:36;-0.90;99.90
4215;DHT22;2121;48.062;7.850;2022-12-18T14:36:03;-1.20;99.90
4215;DHT22;2121;48.062;7.850;2022-12-18T14:38:41;-1.40;99.90
4215;DHT22;2121;48.062;7.850;2022-12-18T14:41:12;-1.60;99.90
4215;DHT22;2121;48.062;7.850;2022-12-18T14:43:40;-1.70;99.90
4215;DHT22;2121;48.062;7.850;2022-12-18T14:49:04;-2.10;99.90
4215;DHT22;2121;48.062;7.850;2022-12-18T14:51:57;-2.50;99.90
4215;DHT22;2121;48.062;7.850;2022-12-18T14:54:30;-2.70;99.90
4215;DHT22;2121;48.062;7.850;2022-12-18T14:57:00;-2.90;99.90
4215;DHT22;2121;48.062;7.850;2022-12-18T14:59:28;-3.10;99.90
4215;DHT22;2121;48.062;7.850;2022-12-18T15:02:21;-3.20;99.90
4215;DHT22;2121;48.062;7.850;2022-12-18T15:05:42;-3.30;99.90
4215;DHT22;2121;48.062;7.850;2022-12-18T15:07:55;-3.30;99.90
4215;DHT22;2121;48.062;7.850;2022-12-18T15:10:26;-3.40;99.90
4215;DHT22;2121;48.062;7.850;2022-12-18T15:20:52;-3.40;99.90
4215;DHT22;2121;48.062;7.850;2022-12-18T15:23:34;-3.40;99.90
4215;DHT22;2121;48.062;7.850;2022-12-18T15:26:06;-3.40;99.90
4215;DHT22;2121;48.062;7.850;2022-12-18T15:28:37;-3.50;99.90
4215;DHT22;2121;48.062;7.850;2022-12-18T15:33:44;-3.40;99.90
4215;DHT22;2121;48.062;7.850;2022-12-18T15:36:29;-3.40;99.90
4215;DHT22;2121;48.062;7.850;2022-12-18T15:38:56;-3.40;99.90
4215;DHT22;2121;48.062;7.850;2022-12-18T15:41:23;-3.30;99.90
4215;DHT22;2121;48.062;7.850;2022-12-18T15:43:51;-3.30;99.90
4215;DHT22;2121;48.062;7.850;2022-12-18T15:46:22;-3.30;99.90
4215;DHT22;2121;48.062;7.850;2022-12-18T15:48:51;-3.30;99.90
4215;DHT22;2121;48.062;7.850;2022-12-18T15:51:21;-3.40;99.90
4215;DHT22;2121;48.062;7.850;2022-12-18T15:53:51;-3.50;99.90
4215;DHT22;2121;48.062;7.850;2022-12-18T15:56:19;-3.50;99.90
4215;DHT22;2121;48.062;7.850;2022-12-18T15:59:12;-3.50;99.90
4215;DHT22;2121;48.062;7.850;2022-12-18T16:01:39;-3.50;99.90
4215;DHT22;2121;48.062;7.850;2022-12-18T16:04:06;-3.50;99.90
4215;DHT22;2121;48.062;7.850;2022-12-18T16:06:31;-3.50;99.90
4215;DHT22;2121;48.062;7.850;2022-12-18T16:08:57;-3.40;99.90
4215;DHT22;2121;48.062;7.850;2022-12-18T16:11:31;-3.40;99.90
4215;DHT22;2121;48.062;7.850;2022-12-18T16:16:46;-3.60;99.90
4215;DHT22;2121;48.062;7.850;2022-12-18T16:19:13;-3.60;99.90
4215;DHT22;2121;48.062;7.850;2022-12-18T16:21:39;-3.70;99.90
4215;DHT22;2121;48.062;7.850;2022-12-18T16:24:05;-3.70;99.90
4215;DHT22;2121;48.062;7.850;2022-12-18T16:26:33;-3.80;99.90
4215;DHT22;2121;48.062;7.850;2022-12-18T16:28:59;-3.80;99.90
4215;DHT22;2121;48.062;7.850;2022-12-18T16:31:24;-3.80;99.90
4215;DHT22;2121;48.062;7.850;2022-12-18T16:36:52;-3.80;99.90
4215;DHT22;2121;48.062;7.850;2022-12-18T16:39:19;-3.80;99.90
4215;DHT22;2121;48.062;7.850;2022-12-18T16:41:45;-3.80;99.90
4215;DHT22;2121;48.062;7.850;2022-12-18T16:44:11;-3.80;99.90
4215;DHT22;2121;48.062;7.850;2022-12-18T16:46:38;-3.90;99.90
4215;DHT22;2121;48.062;7.850;2022-12-18T16:49:04;-3.90;99.90
4215;DHT22;2121;48.062;7.850;2022-12-18T16:51:30;-3.90;99.90
4215;DHT22;2121;48.062;7.850;2022-12-18T16:53:56;-3.90;99.90
4215;DHT22;2121;48.062;7.850;2022-12-18T16:56:22;-3.90;99.90
4215;DHT22;2121;48.062;7.850;2022-12-18T16:58:53;-3.90;99.90
4215;DHT22;2121;48.062;7.850;2022-12-18T17:01:19;-4.00;99.90
4215;DHT22;2121;48.062;7.850;2022-12-18T17:06:27;-4.10;99.90
4215;DHT22;2121;48.062;7.850;2022-12-18T17:08:58;-4.00;99.90
4215;DHT22;2121;48.062;7.850;2022-12-18T17:11:26;-3.90;99.90
4215;DHT22;2121;48.062;7.850;2022-12-18T17:13:53;-3.90;99.90
4215;DHT22;2121;48.062;7.850;2022-12-18T17:16:20;-3.90;99.90
4215;DHT22;2121;48.062;7.850;2022-12-18T17:18:46;-3.80;99.90
4215;DHT22;2121;48.062;7.850;2022-12-18T17:21:13;-3.90;99.90
4215;DHT22;2121;48.062;7.850;2022-12-18T17:23:42;-3.80;99.90
4215;DHT22;2121;48.062;7.850;2022-12-18T17:26:09;-3.70;99.90
4215;DHT22;2121;48.062;7.850;2022-12-18T17:28:36;-3.70;99.90
4215;DHT22;2121;48.062;7.850;2022-12-18T17:31:17;-3.50;99.90
4215;DHT22;2121;48.062;7.850;2022-12-18T17:33:45;-3.50;99.90
4215;DHT22;2121;48.062;7.850;2022-12-18T17:36:11;-3.50;99.90
4215;DHT22;2121;48.062;7.850;2022-12-18T17:38:38;-3.40;99.90
4215;DHT22;2121;48.062;7.850;2022-12-18T17:41:06;-3.40;99.90
4215;DHT22;2121;48.062;7.850;2022-12-18T17:43:34;-3.30;99.90
4215;DHT22;2121;48.062;7.850;2022-12-18T17:46:04;-3.30;99.90
4215;DHT22;2121;48.062;7.850;2022-12-18T17:48:31;-3.30;99.90
4215;DHT22;2121;48.062;7.850;2022-12-18T17:51:02;-3.40;99.90
4215;DHT22;2121;48.062;7.850;2022-12-18T17:53:29;-3.50;99.90
4215;DHT22;2121;48.062;7.850;2022-12-18T17:55:57;-3.50;99.90
4215;DHT22;2121;48.062;7.850;2022-12-18T17:58:25;-3.50;99.90
4215;DHT22;2121;48.062;7.850;2022-12-18T18:00:52;-3.60;99.90
4215;DHT22;2121;48.062;7.850;2022-12-18T18:03:18;-3.60;99.90
4215;DHT22;2121;48.062;7.850;2022-12-18T18:05:44;-3.70;99.90
4215;DHT22;2121;48.062;7.850;2022-12-18T18:08:10;-3.70;99.90
4215;DHT22;2121;48.062;7.850;2022-12-18T18:10:37;-3.80;99.90
4215;DHT22;2121;48.062;7.850;2022-12-18T18:13:04;-3.80;99.90
4215;DHT22;2121;48.062;7.850;2022-12-18T18:15:57;-3.80;99.90
4215;DHT22;2121;48.062;7.850;2022-12-18T18:18:23;-3.70;99.90
4215;DHT22;2121;48.062;7.850;2022-12-18T18:20:49;-3.80;99.90
4215;DHT22;2121;48.062;7.850;2022-12-18T18:23:15;-3.80;99.90
4215;DHT22;2121;48.062;7.850;2022-12-18T18:25:41;-3.80;99.90
4215;DHT22;2121;48.062;7.850;2022-12-18T18:28:06;-3.90;99.90
4215;DHT22;2121;48.062;7.850;2022-12-18T18:30:34;-3.90;99.90
4215;DHT22;2121;48.062;7.850;2022-12-18T18:33:01;-3.90;99.90
4215;DHT22;2121;48.062;7.850;2022-12-18T18:35:26;-3.80;99.90
4215;DHT22;2121;48.062;7.850;2022-12-18T18:37:52;-3.70;99.90
4215;DHT22;2121;48.062;7.850;2022-12-18T18:40:21;-3.60;99.90
4215;DHT22;2121;48.062;7.850;2022-12-18T18:42:47;-3.60;99.90